Time;durP1;ratioP1;P1;durP2;ratioP2;P2;SDS_P1;SDS_P2;PMS_P1;PMS_P2;Temp;Humidity;BMP_temperature;BMP_pressure;BME280_temperature;BME280_humidity;BME280_pressure;Samples;Min_cycle;Max_cycle;Signal;HPM_P1;HPM_P2
2021/04/29 00:00:21;;;;;;;19.27;15.52;;;;;;;15.34;55.45;99346.41;5036267;28;20352;-78
2021/04/29 00:02:47;;;;;;;21.85;16.23;;;;;;;14.85;55.44;99271.59;5036677;28;20022;-79
2021/04/29 00:05:19;;;;;;;26.02;19.23;;;;;;;15.36;55.62;99355.81;5036197;28;20114;-78
2021/04/29 00:07:45;;;;;;;21.13;18.02;;;;;;;15.26;55.48;99337.66;5036397;28;20032;-79
2021/04/29 00:10:15;;;;;;;28.13;22.00;;;;;;;15.20;55.67;99337.69;5018400;28;20033;-78
2021/04/29 00:12:41;;;;;;;26.67;20.75;;;;;;;15.11;55.72;99339.78;5018867;28;20030;-78
2021/04/29 00:15:10;;;;;;;25.25;21.65;;;;;;;14.75;55.85;99287.16;5036170;28;20024;-80
2021/04/29 00:17:36;;;;;;;29.15;22.92;;;;;;;14.59;55.63;99255.75;5036046;28;20021;-78
2021/04/29 00:20:05;;;;;;;24.52;20.08;;;;;;;15.22;55.75;99362.25;5036046;28;20038;-81
2021/04/29 00:22:30;;;;;;;24.92;19.50;;;;;;;15.14;55.65;99331.38;5036171;28;20420;-76
2021/04/29 00:24:55;;;;;;;27.63;21.83;;;;;;;15.22;55.82;99354.25;5035809;28;20021;-80
2021/04/29 00:27:21;;;;;;;26.75;22.70;;;;;;;14.69;55.80;99276.56;5035678;28;20108;-77
2021/04/29 00:29:47;;;;;;;43.38;30.90;;;;;;;15.19;55.78;99360.81;5035819;28;20025;-78
2021/04/29 00:32:12;;;;;;;43.08;31.08;;;;;;;14.80;55.61;99297.16;5018173;28;20024;-78
2021/04/29 00:34:38;;;;;;;44.30;32.63;;;;;;;15.22;55.81;99357.72;5035625;28;20029;-77
2021/04/29 00:37:03;;;;;;;52.67;36.47;;;;;;;14.81;55.98;99304.94;5035579;28;20041;-74
2021/04/29 00:39:28;;;;;;;62.08;40.13;;;;;;;15.15;56.04;99354.28;5035518;28;20351;-75
2021/04/29 00:41:54;;;;;;;56.05;38.60;;;;;;;15.14;55.93;99365.13;5035730;28;20040;-78
2021/04/29 00:44:19;;;;;;;65.07;39.45;;;;;;;15.14;55.94;99357.97;5035085;28;20025;-74
2021/04/29 00:46:45;;;;;;;69.20;42.35;;;;;;;15.14;56.01;99346.53;5035461;28;20029;-78
2021/04/29 00:49:10;;;;;;;74.40;44.08;;;;;;;14.83;56.14;99305.53;5017840;28;20033;-78
2021/04/29 00:51:35;;;;;;;77.65;46.95;;;;;;;14.98;56.23;99341.69;5037944;28;20029;-77
2021/04/29 00:54:01;;;;;;;75.20;43.45;;;;;;;14.84;56.31;99327.63;5019575;28;20025;-77
2021/04/29 00:56:26;;;;;;;90.38;48.33;;;;;;;14.31;56.40;99266.66;5036252;28;20390;-82
2021/04/29 00:58:52;;;;;;;93.32;48.20;;;;;;;14.58;57.32;99339.97;5036670;28;20104;-80
2021/04/29 01:01:20;;;;;;;82.82;46.28;;;;;;;13.47;57.45;99179.81;5035199;28;20017;-83
2021/04/29 01:04:47;;;;;;;87.25;45.70;;;;;;;14.52;57.96;99351.44;5038597;28;20071;-78
2021/04/29 01:07:15;;;;;;;86.78;46.33;;;;;;;14.48;57.40;99339.59;5012987;28;20030;-81
2021/04/29 01:10:03;;;;;;;96.70;49.45;;;;;;;14.66;57.55;99343.41;5049023;28;20039;-83
2021/04/29 01:12:40;;;;;;;110.70;50.60;;;;;;;14.61;57.33;99344.03;5042504;28;20018;-83
2021/04/29 01:15:07;;;;;;;112.88;50.35;;;;;;;14.30;57.60;99300.38;5035195;28;20060;-82
2021/04/29 01:17:35;;;;;;;96.25;46.45;;;;;;;14.25;57.11;99289.56;5040552;28;20025;-80
2021/04/29 01:20:06;;;;;;;96.03;46.38;;;;;;;14.65;57.18;99328.50;5040091;28;20021;-82
2021/04/29 01:22:37;;;;;;;95.85;43.65;;;;;;;14.77;56.94;99343.59;5035667;28;20029;-85
2021/04/29 01:25:07;;;;;;;96.47;42.50;;;;;;;14.46;56.97;99301.78;5034957;28;20026;-81
2021/04/29 01:27:33;;;;;;;120.22;48.35;;;;;;;14.64;57.18;99330.34;5034735;28;20454;-80
2021/04/29 01:30:04;;;;;;;147.48;55.45;;;;;;;14.67;57.07;99364.47;5034760;28;20108;-81
2021/04/29 01:32:30;;;;;;;162.18;59.53;;;;;;;14.13;57.42;99269.97;5035376;28;20026;-81
2021/04/29 01:34:56;;;;;;;178.88;59.97;;;;;;;13.95;57.25;99248.53;5017156;28;20446;-83
2021/04/29 01:37:22;;;;;;;195.57;63.08;;;;;;;14.73;57.31;99360.16;5034467;28;20325;-82
2021/04/29 01:39:48;;;;;;;308.95;88.50;;;;;;;14.29;57.45;99293.44;5034758;28;20405;-84
2021/04/29 01:42:14;;;;;;;279.98;84.80;;;;;;;14.29;57.26;99308.53;5036899;28;20018;-81
2021/04/29 01:44:39;;;;;;;238.02;76.00;;;;;;;14.65;57.41;99379.81;5034586;28;20100;-79
2021/04/29 01:47:06;;;;;;;197.70;65.30;;;;;;;14.62;57.83;99367.75;5034560;28;20030;-82
2021/04/29 01:49:32;;;;;;;126.65;51.13;;;;;;;14.48;57.60;99373.31;5017005;28;20033;-81
2021/04/29 01:51:58;;;;;;;101.95;41.70;;;;;;;13.59;57.51;99212.66;5035634;28;20443;-83
2021/04/29 01:54:24;;;;;;;70.22;36.10;;;;;;;14.31;57.64;99335.72;5016888;28;20144;-80
2021/04/29 01:56:50;;;;;;;65.95;34.67;;;;;;;14.47;57.94;99374.31;5038657;28;20022;-83
2021/04/29 01:59:16;;;;;;;51.63;28.95;;;;;;;14.38;58.20;99394.94;5021101;28;20344;-77
2021/04/29 02:01:43;;;;;;;50.88;30.77;;;;;;;14.20;58.26;99349.63;5021692;28;20060;-83
2021/04/29 02:04:10;;;;;;;35.90;27.52;;;;;;;14.27;58.17;99361.88;5021231;28;20401;-82
2021/04/29 02:06:37;;;;;;;32.03;26.58;;;;;;;14.32;58.35;99353.28;5038470;28;20021;-83
2021/04/29 02:09:04;;;;;;;33.13;25.45;;;;;;;13.85;58.31;99286.13;5038543;28;20025;-81
2021/04/29 02:11:31;;;;;;;31.45;25.65;;;;;;;14.30;58.55;99350.00;5021209;28;20022;-81
2021/04/29 02:13:58;;;;;;;33.35;25.55;;;;;;;14.33;58.02;99352.25;5038414;28;20029;-83
2021/04/29 02:16:41;;;;;;;31.02;24.50;;;;;;;14.23;58.77;99349.22;5038313;28;20032;-83
2021/04/29 02:19:09;;;;;;;28.92;22.88;;;;;;;14.38;58.29;99371.03;5038491;28;20028;-78
2021/04/29 02:21:42;;;;;;;31.20;22.58;;;;;;;14.41;58.33;99369.81;5039571;28;20032;-81
2021/04/29 02:24:10;;;;;;;29.55;23.10;;;;;;;14.37;57.97;99380.03;5020831;28;20025;-82
2021/04/29 02:26:35;;;;;;;25.95;22.13;;;;;;;14.07;58.14;99331.03;5020489;28;20021;-81
2021/04/29 02:29:04;;;;;;;27.42;23.02;;;;;;;14.21;57.86;99357.38;5038064;28;20097;-80
2021/04/29 02:31:30;;;;;;;26.80;22.88;;;;;;;13.88;58.36;99317.56;5021053;28;20051;-80
2021/04/29 02:33:55;;;;;;;27.02;22.92;;;;;;;14.26;58.18;99378.00;5037905;28;20021;-83
2021/04/29 02:36:21;;;;;;;30.58;24.33;;;;;;;13.99;58.35;99334.69;5037877;28;20410;-82
2021/04/29 02:38:47;;;;;;;25.73;22.15;;;;;;;13.47;58.45;99253.28;5020454;28;20021;-80
2021/04/29 02:41:13;;;;;;;26.25;21.85;;;;;;;14.03;58.46;99329.78;5037934;28;20025;-80
2021/04/29 02:43:38;;;;;;;28.58;24.13;;;;;;;14.27;58.56;99377.81;5038897;28;20013;-81
2021/04/29 02:46:04;;;;;;;27.73;23.65;;;;;;;13.62;58.53;99261.84;5037894;28;20025;-81
2021/04/29 02:48:30;;;;;;;32.90;25.20;;;;;;;13.85;58.48;99312.66;5020110;28;20021;-82
2021/04/29 02:51:00;;;;;;;26.85;23.60;;;;;;;14.33;58.53;99373.50;5037789;28;20022;-81
2021/04/29 02:53:26;;;;;;;32.35;24.73;;;;;;;14.36;58.34;99385.56;5038532;28;20025;-79
2021/04/29 02:55:51;;;;;;;27.15;21.63;;;;;;;14.26;58.51;99383.31;5037648;28;20026;-80
2021/04/29 02:58:17;;;;;;;27.65;22.63;;;;;;;14.03;58.48;99349.19;5037353;28;20021;-83
2021/04/29 03:00:45;;;;;;;26.80;22.83;;;;;;;13.57;58.95;99304.91;5037522;28;20029;-80
2021/04/29 03:03:11;;;;;;;28.25;22.02;;;;;;;14.13;59.17;99394.75;5037933;28;20024;-80
2021/04/29 03:05:38;;;;;;;26.65;22.58;;;;;;;14.13;58.69;99392.09;5019753;28;20058;-82
2021/04/29 03:08:04;;;;;;;28.77;21.25;;;;;;;13.22;58.89;99250.38;5037658;28;20087;-77
2021/04/29 03:10:30;;;;;;;26.02;21.25;;;;;;;14.02;58.83;99376.75;5019877;28;20021;-81
2021/04/29 03:12:56;;;;;;;30.73;22.55;;;;;;;13.67;58.40;99333.69;5026392;28;20436;-80
2021/04/29 03:15:22;;;;;;;24.88;21.40;;;;;;;14.20;58.55;99406.19;5023222;28;20064;-83
2021/04/29 03:17:47;;;;;;;28.65;22.17;;;;;;;13.87;59.11;99362.88;5037232;28;20380;-83
2021/04/29 03:20:13;;;;;;;28.00;22.08;;;;;;;14.17;58.64;99413.75;5019609;28;20324;-79
2021/04/29 03:22:39;;;;;;;29.77;23.40;;;;;;;13.63;58.91;99332.44;5037258;28;20022;-81
2021/04/29 03:25:05;;;;;;;26.90;22.52;;;;;;;14.02;58.59;99399.84;5020469;28;20029;-78
2021/04/29 03:27:31;;;;;;;31.42;22.33;;;;;;;14.00;58.74;99416.78;5036982;28;20052;-79
2021/04/29 03:29:56;;;;;;;33.92;25.27;;;;;;;14.06;58.93;99431.09;5036871;28;20097;-80
2021/04/29 03:32:21;;;;;;;28.00;22.77;;;;;;;14.02;58.71;99437.81;5019221;28;20403;-82
2021/04/29 03:34:47;;;;;;;30.88;24.42;;;;;;;14.05;59.08;99431.28;5019275;28;20029;-81
2021/04/29 03:37:13;;;;;;;33.25;22.20;;;;;;;13.38;58.69;99336.66;5019208;28;20431;-81
2021/04/29 03:39:39;;;;;;;28.90;23.23;;;;;;;13.68;58.94;99364.50;5036748;28;20023;-77
2021/04/29 03:42:06;;;;;;;30.45;23.52;;;;;;;13.09;58.54;99269.69;5036775;28;20025;-82
2021/04/29 03:44:33;;;;;;;29.17;23.75;;;;;;;14.18;58.75;99441.94;5036643;28;20013;-77
2021/04/29 03:46:59;;;;;;;27.05;22.27;;;;;;;13.97;58.94;99411.88;5019218;28;20051;-78
2021/04/29 03:49:24;;;;;;;27.90;23.02;;;;;;;13.87;58.82;99398.19;5037194;28;20025;-80
2021/04/29 03:51:49;;;;;;;29.80;22.77;;;;;;;13.60;58.87;99372.66;5036797;28;20351;-80
2021/04/29 03:54:15;;;;;;;26.48;22.58;;;;;;;14.08;58.83;99444.16;5036381;28;20454;-78
2021/04/29 03:56:40;;;;;;;28.02;22.83;;;;;;;13.76;58.74;99398.78;5036495;28;20026;-78
2021/04/29 03:59:06;;;;;;;26.50;23.10;;;;;;;14.10;58.79;99442.13;5036348;28;20022;-80
2021/04/29 04:01:31;;;;;;;28.30;22.42;;;;;;;12.79;59.06;99244.53;5036461;28;20033;-81
2021/04/29 04:03:57;;;;;;;30.15;23.27;;;;;;;14.02;58.85;99456.41;5036321;28;20075;-80
2021/04/29 04:06:23;;;;;;;31.65;24.10;;;;;;;13.90;59.22;99453.53;5018566;28;20078;-82
2021/04/29 04:08:48;;;;;;;30.55;24.65;;;;;;;13.84;59.33;99437.59;5036297;28;20156;-81
2021/04/29 04:11:14;;;;;;;31.52;23.77;;;;;;;14.02;59.01;99450.28;5036363;28;20060;-79
2021/04/29 04:13:39;;;;;;;30.95;23.63;;;;;;;13.40;59.43;99371.78;5018576;28;20025;-80
2021/04/29 04:16:05;;;;;;;31.15;24.83;;;;;;;13.93;59.56;99463.75;5036008;28;20053;-81
2021/04/29 04:18:30;;;;;;;30.10;23.83;;;;;;;13.93;59.54;99460.25;5017732;28;20451;-80
2021/04/29 04:20:56;;;;;;;31.70;23.85;;;;;;;13.98;59.44;99465.78;5018519;28;20112;-78
2021/04/29 04:23:21;;;;;;;34.90;26.83;;;;;;;13.38;59.05;99368.50;5036831;28;20108;-79
2021/04/29 04:25:46;;;;;;;27.73;22.20;;;;;;;13.67;58.80;99405.31;5018453;28;20026;-79
2021/04/29 04:28:12;;;;;;;27.20;24.15;;;;;;;13.23;59.12;99339.50;5036004;28;20029;-79
2021/04/29 04:30:38;;;;;;;23.60;21.05;;;;;;;14.17;59.00;99478.31;5035637;28;20462;-79
2021/04/29 04:33:04;;;;;;;32.70;24.02;;;;;;;13.58;58.92;99385.28;5035708;28;20038;-80
2021/04/29 04:35:29;;;;;;;25.33;21.10;;;;;;;14.19;58.88;99489.53;5018229;28;20033;-79
2021/04/29 04:37:55;;;;;;;25.95;21.90;;;;;;;14.16;58.91;99483.81;5036769;28;20108;-80
2021/04/29 04:40:21;;;;;;;26.33;23.60;;;;;;;14.19;58.97;99483.41;5018038;28;20021;-78
2021/04/29 04:42:46;;;;;;;29.63;25.88;;;;;;;13.20;58.53;99326.63;5035621;28;20022;-81
2021/04/29 04:45:12;;;;;;;28.20;24.27;;;;;;;14.20;58.77;99469.94;5035601;28;20100;-80
2021/04/29 04:47:38;;;;;;;28.13;24.92;;;;;;;14.18;58.50;99457.88;5035365;28;20033;-80
2021/04/29 04:50:06;;;;;;;33.60;26.95;;;;;;;14.42;58.57;99520.19;5035422;28;20021;-78
2021/04/29 04:52:31;;;;;;;32.33;28.02;;;;;;;14.49;58.16;99499.81;5035255;28;20082;-79
2021/04/29 04:54:57;;;;;;;35.65;29.05;;;;;;;13.90;58.49;99402.28;5035451;28;20029;-77
2021/04/29 04:57:22;;;;;;;31.70;27.35;;;;;;;14.39;58.18;99481.59;5035446;28;20096;-79
2021/04/29 04:59:48;;;;;;;34.05;28.85;;;;;;;14.10;57.81;99442.13;5035287;28;20029;-77
2021/04/29 05:02:13;;;;;;;35.75;29.20;;;;;;;14.62;57.89;99502.44;5036012;28;20427;-79
2021/04/29 05:04:39;;;;;;;34.38;26.92;;;;;;;14.37;57.67;99453.59;5017394;28;20075;-79
2021/04/29 05:07:04;;;;;;;33.92;28.92;;;;;;;14.65;57.43;99498.56;5018209;28;20032;-79
2021/04/29 05:09:30;;;;;;;34.17;28.58;;;;;;;14.38;57.44;99437.44;5039957;28;20104;-76
2021/04/29 05:11:56;;;;;;;33.45;26.88;;;;;;;14.08;57.37;99399.84;5035563;28;20029;-75
2021/04/29 05:14:22;;;;;;;30.88;25.33;;;;;;;14.40;57.37;99459.31;5034936;28;20028;-79
2021/04/29 05:16:48;;;;;;;28.80;25.67;;;;;;;14.72;57.21;99510.81;5017579;28;20022;-76
2021/04/29 05:19:13;;;;;;;33.95;29.70;;;;;;;14.36;57.10;99454.59;5017434;28;20087;-77
2021/04/29 05:21:39;;;;;;;29.33;26.23;;;;;;;14.57;57.64;99512.88;5034806;28;20421;-77
2021/04/29 05:24:05;;;;;;;36.55;29.05;;;;;;;13.97;57.91;99429.63;5035066;28;20041;-78
2021/04/29 05:26:30;;;;;;;33.90;28.83;;;;;;;14.52;57.55;99504.69;5017345;28;20022;-81
2021/04/29 05:28:56;;;;;;;30.73;27.15;;;;;;;14.05;57.62;99441.91;5017278;28;20030;-78
2021/04/29 05:31:21;;;;;;;35.20;28.27;;;;;;;14.60;57.40;99529.22;5016897;28;20021;-76
2021/04/29 05:33:47;;;;;;;33.90;28.70;;;;;;;14.47;57.19;99494.69;5015445;28;20040;-79
2021/04/29 05:36:12;;;;;;;37.83;26.83;;;;;;;14.60;57.46;99512.47;5015824;28;20025;-79
2021/04/29 05:38:38;;;;;;;34.45;29.13;;;;;;;14.65;57.42;99515.31;5034835;28;20028;-77
2021/04/29 05:41:03;;;;;;;36.58;28.70;;;;;;;14.83;57.14;99533.31;5012711;28;20021;-75
2021/04/29 05:43:28;;;;;;;39.80;28.95;;;;;;;14.68;56.78;99504.28;5031335;28;20044;-76
2021/04/29 05:45:54;;;;;;;32.67;28.88;;;;;;;14.74;56.94;99513.28;5032985;28;20439;-76
2021/04/29 05:48:19;;;;;;;37.75;30.70;;;;;;;14.83;57.29;99536.78;5038040;28;20064;-75
2021/04/29 05:50:45;;;;;;;35.88;30.13;;;;;;;14.71;57.03;99519.00;5024100;28;20712;-76
2021/04/29 05:53:10;;;;;;;45.80;31.98;;;;;;;14.87;57.19;99539.88;5038773;28;20344;-74
2021/04/29 05:55:36;;;;;;;39.03;31.98;;;;;;;14.93;56.93;99545.19;5036556;28;20033;-76
2021/04/29 05:58:01;;;;;;;37.03;30.65;;;;;;;14.46;57.03;99463.84;5044570;28;20021;-77
2021/04/29 06:00:27;;;;;;;37.50;29.80;;;;;;;15.07;56.77;99548.66;5034358;28;20356;-76
2021/04/29 06:02:55;;;;;;;39.13;30.35;;;;;;;15.04;56.76;99543.75;5034154;28;20452;-75
2021/04/29 06:05:21;;;;;;;35.80;30.50;;;;;;;15.05;56.47;99533.94;5033716;28;20026;-76
2021/04/29 06:07:54;;;;;;;39.17;33.22;;;;;;;15.05;56.79;99520.63;5034365;28;20021;-76
2021/04/29 06:10:20;;;;;;;38.55;31.73;;;;;;;15.28;56.31;99558.22;5034450;28;20104;-74
2021/04/29 06:12:45;;;;;;;34.35;26.15;;;;;;;15.31;56.25;99554.34;5034920;28;20128;-75
2021/04/29 06:15:11;;;;;;;35.67;25.63;;;;;;;15.12;56.24;99532.88;5036517;28;20029;-77
2021/04/29 06:17:36;;;;;;;33.75;28.63;;;;;;;15.35;55.94;99559.03;5037761;28;20438;-77
2021/04/29 06:20:02;;;;;;;37.45;30.45;;;;;;;15.09;55.85;99532.50;5037630;28;20033;-79
2021/04/29 06:22:27;;;;;;;38.28;27.88;;;;;;;15.00;55.73;99515.94;5034124;28;20402;-76
2021/04/29 06:24:52;;;;;;;32.63;27.23;;;;;;;15.20;55.87;99545.16;5016778;28;20021;-75
2021/04/29 06:27:18;;;;;;;32.97;26.15;;;;;;;15.32;55.65;99558.63;5033669;28;20100;-78
2021/04/29 06:29:44;;;;;;;32.83;26.58;;;;;;;15.19;55.74;99543.50;5027076;28;20029;-80
2021/04/29 06:32:09;;;;;;;33.30;27.83;;;;;;;15.41;55.70;99573.34;5016504;28;20036;-77
2021/04/29 06:34:34;;;;;;;30.02;25.25;;;;;;;15.27;55.77;99537.97;5032957;28;20288;-79
2021/04/29 06:37:01;;;;;;;34.25;27.70;;;;;;;15.60;55.35;99577.00;5012873;28;20175;-77
2021/04/29 06:39:26;;;;;;;31.77;25.00;;;;;;;15.67;55.10;99568.00;5028894;28;20678;-77
2021/04/29 06:41:53;;;;;;;29.15;22.98;;;;;;;15.71;54.97;99587.03;5033161;28;20040;-74
2021/04/29 06:44:18;;;;;;;24.63;22.02;;;;;;;15.78;54.87;99563.84;5035947;28;20013;-77
2021/04/29 06:46:45;;;;;;;29.90;24.15;;;;;;;15.59;54.71;99528.28;5048040;28;20027;-76
2021/04/29 06:49:10;;;;;;;26.27;22.17;;;;;;;16.04;54.25;99570.91;5047760;28;20017;-74
2021/04/29 06:51:36;;;;;;;27.00;23.02;;;;;;;15.88;54.10;99558.91;5036945;28;20032;-76
2021/04/29 06:54:02;;;;;;;23.05;20.65;;;;;;;15.90;54.21;99543.53;5037389;28;20021;-80
2021/04/29 06:56:27;;;;;;;27.95;23.33;;;;;;;16.23;53.80;99566.50;5037362;28;20371;-80
2021/04/29 06:58:52;;;;;;;29.70;24.48;;;;;;;16.07;53.54;99526.03;5037606;28;20079;-80
2021/04/29 07:01:18;;;;;;;28.42;24.80;;;;;;;16.29;53.28;99550.47;5038274;28;20029;-77
2021/04/29 07:03:43;;;;;;;26.98;24.08;;;;;;;16.32;53.21;99555.38;5042223;28;20009;-80
2021/04/29 07:06:09;;;;;;;24.55;20.83;;;;;;;16.30;52.92;99546.78;5019320;28;20329;-80
2021/04/29 07:08:34;;;;;;;29.45;23.10;;;;;;;16.38;52.93;99556.41;5037416;28;20472;-75
2021/04/29 07:11:00;;;;;;;26.50;20.08;;;;;;;16.25;52.72;99535.94;5035622;28;20029;-76
2021/04/29 07:13:25;;;;;;;23.77;19.60;;;;;;;16.11;52.48;99505.09;5032088;28;21784;-78
2021/04/29 07:15:51;;;;;;;24.02;20.38;;;;;;;15.76;52.28;99446.13;5036482;28;20454;-77
2021/04/29 07:18:16;;;;;;;22.70;19.73;;;;;;;16.52;52.17;99537.44;5036295;28;20507;-77
2021/04/29 07:20:42;;;;;;;23.77;18.92;;;;;;;16.59;51.60;99521.38;5018958;28;20086;-79
2021/04/29 07:23:07;;;;;;;23.50;18.85;;;;;;;16.50;51.22;99499.50;5036842;28;20168;-77
2021/04/29 07:25:34;;;;;;;22.45;18.55;;;;;;;16.69;51.24;99528.91;5019235;28;20347;-80
2021/04/29 07:27:59;;;;;;;25.45;19.50;;;;;;;16.18;51.24;99439.28;5037014;28;20313;-80
2021/04/29 07:30:25;;;;;;;24.17;19.80;;;;;;;16.92;51.36;99552.31;5018351;28;20093;-80
2021/04/29 07:32:51;;;;;;;23.38;18.45;;;;;;;16.62;50.83;99493.47;5036412;28;20057;-79
2021/04/29 07:35:17;;;;;;;28.83;20.25;;;;;;;16.87;50.60;99517.47;5018584;28;20111;-77
2021/04/29 07:37:43;;;;;;;26.73;21.50;;;;;;;17.13;50.85;99549.25;5036319;28;20065;-79
2021/04/29 07:40:08;;;;;;;30.90;24.17;;;;;;;16.62;50.98;99456.16;5019284;28;20037;-79
2021/04/29 07:42:34;;;;;;;34.80;27.65;;;;;;;17.26;50.35;99533.13;5036105;28;20021;-80
2021/04/29 07:44:59;;;;;;;35.25;29.13;;;;;;;17.11;50.45;99511.31;5039965;28;20044;-78
2021/04/29 07:47:25;;;;;;;38.97;30.00;;;;;;;17.39;50.61;99556.19;5039274;28;20021;-79
2021/04/29 07:49:50;;;;;;;37.05;29.30;;;;;;;17.19;50.12;99507.53;5029342;28;20029;-79
2021/04/29 07:52:16;;;;;;;47.72;34.28;;;;;;;17.65;50.27;99561.22;5037327;28;20024;-79
2021/04/29 07:54:41;;;;;;;44.42;35.55;;;;;;;17.74;50.08;99562.59;5035557;28;20029;-78
2021/04/29 07:57:07;;;;;;;43.53;36.95;;;;;;;17.56;49.37;99493.16;5030645;28;20026;-82
2021/04/29 07:59:32;;;;;;;46.05;36.95;;;;;;;18.10;49.19;99555.56;5018134;28;20104;-81
2021/04/29 08:01:58;;;;;;;45.10;36.38;;;;;;;18.22;49.05;99551.09;5036638;28;20099;-78
2021/04/29 08:04:23;;;;;;;41.83;35.67;;;;;;;18.26;48.75;99554.94;5035464;28;20018;-80
2021/04/29 08:06:49;;;;;;;45.30;40.15;;;;;;;18.21;48.74;99570.84;5035185;28;20025;-78
2021/04/29 08:09:14;;;;;;;44.15;38.58;;;;;;;17.78;48.69;99472.16;5037134;28;20347;-78
2021/04/29 08:11:40;;;;;;;47.17;41.65;;;;;;;18.34;48.60;99548.44;5040806;28;20021;-79
2021/04/29 08:14:05;;;;;;;42.30;34.63;;;;;;;17.76;48.37;99440.31;5029789;28;20022;-79
2021/04/29 08:16:31;;;;;;;42.22;37.63;;;;;;;18.20;48.19;99488.22;5036363;28;20056;-79
2021/04/29 08:18:59;;;;;;;42.78;36.38;;;;;;;18.65;47.42;99561.59;5035554;28;20095;-80
2021/04/29 08:21:26;;;;;;;39.38;34.45;;;;;;;18.73;47.33;99547.88;5029675;28;20037;-79
2021/04/29 08:25:28;;;;;;;48.55;41.00;;;;;;;18.78;46.84;99515.09;4748740;27;805464;-76
2021/04/29 08:27:53;;;;;;;51.28;42.38;;;;;;;19.03;46.49;99542.44;5093605;28;20115;-77
2021/04/29 08:30:26;;;;;;;52.22;43.13;;;;;;;19.03;46.68;99541.63;5088905;28;20024;-77
2021/04/29 08:32:51;;;;;;;54.25;42.60;;;;;;;19.11;46.59;99529.75;5090755;28;20056;-76
2021/04/29 08:35:16;;;;;;;52.30;41.28;;;;;;;19.20;46.26;99536.38;5071198;28;20059;-76
2021/04/29 08:37:42;;;;;;;52.28;41.90;;;;;;;18.88;45.84;99467.19;5076847;28;20341;-76
2021/04/29 08:40:08;;;;;;;55.67;44.15;;;;;;;19.00;45.42;99454.59;5087904;28;20027;-76
2021/04/29 08:42:34;;;;;;;52.85;42.10;;;;;;;19.51;45.27;99530.66;5071280;28;20054;-77
2021/04/29 08:44:59;;;;;;;55.83;41.97;;;;;;;19.31;45.14;99484.69;5085954;28;20035;-78
2021/04/29 08:47:25;;;;;;;51.90;39.50;;;;;;;19.55;45.21;99525.66;5072019;28;20024;-76
2021/04/29 08:49:53;;;;;;;53.53;39.95;;;;;;;19.56;45.18;99519.25;5068509;28;20016;-77
2021/04/29 08:52:18;;;;;;;44.65;36.22;;;;;;;18.97;44.65;99384.69;5083686;28;20036;-76
2021/04/29 08:54:46;;;;;;;45.75;35.75;;;;;;;20.12;44.43;99533.75;5059949;28;20021;-77
2021/04/29 08:57:12;;;;;;;56.95;40.92;;;;;;;19.90;43.83;99471.97;5075424;28;20025;-76
2021/04/29 08:59:38;;;;;;;51.92;37.75;;;;;;;20.29;43.71;99511.28;5089721;28;20042;-78
2021/04/29 09:02:03;;;;;;;53.33;39.70;;;;;;;20.52;43.37;99520.28;5090735;28;20047;-77
2021/04/29 09:04:38;;;;;;;47.80;36.63;;;;;;;20.49;43.26;99496.63;5080110;28;20025;-78
2021/04/29 09:07:18;;;;;;;48.78;35.28;;;;;;;20.86;42.44;99527.28;5090340;28;20027;-79
2021/04/29 09:09:44;;;;;;;60.67;39.08;;;;;;;21.03;42.42;99523.75;5084244;28;20115;-76
2021/04/29 09:12:10;;;;;;;51.08;37.22;;;;;;;20.91;42.31;99491.66;5084997;28;20048;-77
2021/04/29 09:14:38;;;;;;;41.90;32.83;;;;;;;21.25;42.09;99511.22;5076176;28;20017;-76
2021/04/29 09:17:05;;;;;;;47.20;33.42;;;;;;;21.44;41.69;99507.16;5090626;28;20028;-77
2021/04/29 09:19:34;;;;;;;49.22;33.05;;;;;;;21.61;41.23;99500.94;5087881;28;20036;-78
2021/04/29 09:22:00;;;;;;;43.20;32.70;;;;;;;21.26;41.03;99437.66;5073355;28;20055;-77
2021/04/29 09:24:36;;;;;;;45.08;33.22;;;;;;;21.66;40.85;99487.56;5086611;28;20111;-76
2021/04/29 09:27:34;;;;;;;45.55;33.42;;;;;;;21.94;40.77;99492.72;5095252;28;20040;-77
2021/04/29 09:30:03;;;;;;;44.50;31.63;;;;;;;22.08;40.67;99472.44;5036291;28;20061;-77
2021/04/29 09:32:28;;;;;;;41.65;30.52;;;;;;;22.47;40.18;99489.22;5071938;28;20028;-77
2021/04/29 09:34:54;;;;;;;40.50;28.50;;;;;;;22.32;39.63;99454.13;5089818;28;20107;-76
2021/04/29 09:37:47;;;;;;;42.53;29.25;;;;;;;22.74;39.09;99481.06;5058507;28;20036;-73
2021/04/29 09:40:21;;;;;;;40.83;30.70;;;;;;;22.59;39.11;99439.78;5067388;28;20044;-75
2021/04/29 09:42:48;;;;;;;36.47;25.77;;;;;;;22.98;38.85;99470.75;5077069;28;20024;-76
2021/04/29 09:45:27;;;;;;;36.38;26.58;;;;;;;23.36;38.33;99491.16;5081495;28;20029;-77
2021/04/29 09:47:58;;;;;;;35.38;25.75;;;;;;;23.50;37.90;99486.09;5064719;28;20041;-77
2021/04/29 09:50:35;;;;;;;32.05;23.20;;;;;;;23.61;37.82;99487.78;5060209;28;20052;-75
2021/04/29 09:53:12;;;;;;;32.30;24.75;;;;;;;23.46;37.11;99495.78;5090069;28;20047;-75
2021/04/29 09:55:39;;;;;;;35.97;26.27;;;;;;;23.53;37.58;99488.28;5074820;28;20044;-77
2021/04/29 09:58:17;;;;;;;27.67;20.60;;;;;;;23.26;37.55;99426.47;5076683;28;20039;-74
2021/04/29 10:00:44;;;;;;;20.25;17.17;;;;;;;23.92;37.59;99487.91;5075664;28;20025;-75
2021/04/29 10:03:10;;;;;;;28.70;21.17;;;;;;;24.15;36.92;99487.41;5075628;28;20047;-74
2021/04/29 10:05:39;;;;;;;28.48;20.13;;;;;;;24.35;36.54;99478.53;5076673;28;20109;-75
2021/04/29 10:08:10;;;;;;;22.73;19.73;;;;;;;24.17;36.69;99460.97;5076563;28;20024;-76
2021/04/29 10:10:38;;;;;;;24.73;21.13;;;;;;;24.43;36.51;99452.88;5076828;28;20031;-74
2021/04/29 10:13:05;;;;;;;27.50;19.83;;;;;;;24.47;36.03;99448.56;5076530;28;20464;-75
2021/04/29 10:15:33;;;;;;;25.00;19.65;;;;;;;24.89;35.92;99475.25;5074946;28;20036;-76
2021/04/29 10:17:58;;;;;;;26.73;20.10;;;;;;;24.69;35.87;99435.59;5076303;28;20084;-76
2021/04/29 10:20:25;;;;;;;25.38;20.67;;;;;;;24.78;35.73;99411.56;5075053;28;20106;-74
2021/04/29 10:22:50;;;;;;;24.23;19.85;;;;;;;24.73;35.81;99411.56;5068572;28;20453;-76
2021/04/29 10:25:26;;;;;;;21.58;19.23;;;;;;;25.06;35.83;99435.25;5062204;28;20041;-76
2021/04/29 10:27:55;;;;;;;22.55;19.42;;;;;;;25.27;35.95;99425.22;5068314;28;20038;-75
2021/04/29 10:30:31;;;;;;;26.00;19.75;;;;;;;25.67;35.61;99450.44;5076109;28;20032;-75
2021/04/29 10:32:56;;;;;;;21.05;16.92;;;;;;;25.50;35.49;99432.66;5076067;28;20031;-76
2021/04/29 10:35:24;;;;;;;19.23;16.35;;;;;;;25.39;35.46;99420.28;5058087;28;20044;-76
2021/04/29 10:37:55;;;;;;;18.70;15.63;;;;;;;25.55;35.27;99446.16;5074546;28;20036;-76
2021/04/29 10:40:40;;;;;;;17.77;13.13;;;;;;;25.77;35.09;99448.50;5073339;28;20044;-76
2021/04/29 10:43:08;;;;;;;23.15;14.15;;;;;;;25.77;34.75;99424.16;5066254;28;20029;-76
2021/04/29 10:45:34;;;;;;;15.45;13.20;;;;;;;25.87;34.64;99407.84;5079612;28;20035;-76
2021/04/29 10:48:06;;;;;;;15.50;13.45;;;;;;;26.48;34.29;99448.00;5055451;28;20025;-77
2021/04/29 10:50:45;;;;;;;16.13;12.50;;;;;;;26.51;33.36;99420.34;5057079;28;20119;-79
2021/04/29 10:53:13;;;;;;;15.75;12.27;;;;;;;26.44;33.46;99395.50;5080924;28;20403;-76
2021/04/29 10:55:39;;;;;;;17.02;11.32;;;;;;;26.59;33.52;99411.59;5084423;28;20077;-76
2021/04/29 10:58:07;;;;;;;13.32;10.50;;;;;;;26.74;33.38;99429.59;5089476;28;20016;-75
2021/04/29 11:00:52;;;;;;;14.73;10.50;;;;;;;26.88;33.14;99425.13;5083110;28;20024;-75
2021/04/29 11:03:28;;;;;;;12.20;9.93;;;;;;;26.81;33.54;99432.00;5083197;28;20082;-77
2021/04/29 11:06:07;;;;;;;13.70;10.48;;;;;;;26.98;33.13;99426.97;5073363;28;20028;-75
2021/04/29 11:08:38;;;;;;;14.68;9.68;;;;;;;27.22;33.05;99433.16;5076010;28;20031;-77
2021/04/29 11:11:04;;;;;;;12.75;10.40;;;;;;;27.27;32.69;99398.94;5090513;28;20029;-75
2021/04/29 11:13:29;;;;;;;12.88;9.32;;;;;;;27.32;32.38;99380.72;5073334;28;20036;-77
2021/04/29 11:15:58;;;;;;;14.18;10.70;;;;;;;27.29;32.56;99413.84;5064366;28;20350;-77
2021/04/29 11:18:23;;;;;;;11.25;8.95;;;;;;;27.26;32.10;99408.19;5079125;28;20024;-78